Time;durP1;ratioP1;P1;durP2;ratioP2;P2;SDS_P1;SDS_P2;PMS_P1;PMS_P2;Temp;Humidity;BMP_temperature;BMP_pressure;BME280_temperature;BME280_humidity;BME280_pressure;Samples;Min_cycle;Max_cycle;Signal;HPM_P1;HPM_P2
2020/12/01 00:00:08;;;;;;;29.77;17.27;;;4.50;99.90;;;;;;5071772;28;20239;-85
2020/12/01 00:02:34;;;;;;;28.10;14.03;;;4.50;99.90;;;;;;5071355;28;20227;-85
2020/12/01 00:05:00;;;;;;;19.97;13.77;;;4.50;99.90;;;;;;5064018;28;20474;-84
2020/12/01 00:07:25;;;;;;;23.60;13.93;;;4.50;99.90;;;;;;5070311;28;20462;-85
2020/12/01 00:09:51;;;;;;;23.80;16.23;;;4.50;99.90;;;;;;5074938;28;20264;-88
2020/12/01 00:12:16;;;;;;;23.27;14.80;;;4.50;99.90;;;;;;5071432;28;20180;-90
2020/12/01 00:14:42;;;;;;;24.77;15.00;;;4.50;99.90;;;;;;5070473;28;20177;-88
2020/12/01 00:17:07;;;;;;;27.17;15.83;;;4.50;99.90;;;;;;5072879;28;20180;-89
2020/12/01 00:19:33;;;;;;;23.73;14.37;;;4.50;99.90;;;;;;5073916;28;20165;-88
2020/12/01 00:21:59;;;;;;;23.23;14.47;;;4.50;99.90;;;;;;5073377;28;20173;-89
2020/12/01 00:24:24;;;;;;;26.47;15.67;;;4.60;99.90;;;;;;5068768;28;20208;-87
2020/12/01 00:26:50;;;;;;;23.10;15.77;;;4.50;99.90;;;;;;5074743;28;20697;-90
2020/12/01 00:29:16;;;;;;;24.03;14.20;;;4.60;99.90;;;;;;5073188;28;20508;-89
2020/12/01 00:31:43;;;;;;;25.30;16.23;;;4.60;99.90;;;;;;5073319;28;20408;-90
2020/12/01 00:34:11;;;;;;;23.57;14.20;;;4.60;99.90;;;;;;5074062;28;20173;-89
2020/12/01 00:36:36;;;;;;;21.70;14.97;;;4.60;99.90;;;;;;5070565;28;20949;-90
2020/12/01 00:39:07;;;;;;;29.93;16.40;;;4.60;99.90;;;;;;5074240;28;20408;-91
2020/12/01 00:41:33;;;;;;;27.80;15.73;;;4.60;99.90;;;;;;5071417;28;20182;-88
2020/12/01 00:43:58;;;;;;;28.13;15.23;;;4.60;99.90;;;;;;5070414;28;21022;-90
2020/12/01 00:46:24;;;;;;;24.80;16.47;;;4.70;99.90;;;;;;5070743;28;20661;-88
2020/12/01 00:48:50;;;;;;;28.97;17.43;;;4.70;99.90;;;;;;5071109;28;20621;-84
2020/12/01 00:51:15;;;;;;;29.33;17.00;;;4.70;99.90;;;;;;5068239;28;20281;-88
2020/12/01 00:53:41;;;;;;;24.77;16.10;;;4.80;99.90;;;;;;5072057;28;20649;-87
2020/12/01 00:56:07;;;;;;;24.67;15.73;;;4.80;99.90;;;;;;5072699;28;20172;-86
2020/12/01 00:58:32;;;;;;;25.17;15.13;;;4.80;99.90;;;;;;5075375;28;20177;-89
2020/12/01 01:00:58;;;;;;;27.97;16.20;;;4.80;99.90;;;;;;5075880;28;20244;-90
2020/12/01 01:03:24;;;;;;;26.80;14.90;;;4.80;99.90;;;;;;5075825;28;20222;-89
2020/12/01 01:05:49;;;;;;;24.47;14.67;;;4.80;99.90;;;;;;5074592;28;20479;-88
2020/12/01 01:08:15;;;;;;;24.70;14.10;;;4.70;99.90;;;;;;5074680;28;20239;-94
2020/12/01 01:10:40;;;;;;;27.20;16.70;;;4.70;99.90;;;;;;5065079;28;20176;-86
2020/12/01 01:13:06;;;;;;;28.97;17.50;;;4.70;99.90;;;;;;5073806;28;20181;-87
2020/12/01 01:15:34;;;;;;;30.07;18.27;;;4.80;99.90;;;;;;5073920;28;20181;-88
2020/12/01 01:18:00;;;;;;;30.17;16.87;;;4.80;99.90;;;;;;5071061;28;20419;-90
2020/12/01 01:20:29;;;;;;;32.93;16.27;;;4.80;99.90;;;;;;5073748;28;20547;-86
2020/12/01 01:22:55;;;;;;;30.33;18.33;;;4.80;99.90;;;;;;5080591;28;20403;-90
2020/12/01 01:25:22;;;;;;;24.03;15.47;;;4.90;99.90;;;;;;5081826;28;20983;-91
2020/12/01 01:27:50;;;;;;;27.47;15.77;;;4.90;99.90;;;;;;5077052;28;20446;-87
2020/12/01 01:30:24;;;;;;;24.30;15.97;;;4.90;99.90;;;;;;5075321;28;20431;-90
2020/12/01 01:32:50;;;;;;;24.60;14.87;;;4.80;99.90;;;;;;5074392;28;20412;-91
2020/12/01 01:35:18;;;;;;;31.53;16.83;;;4.90;99.90;;;;;;5073505;28;20793;-89
2020/12/01 01:37:48;;;;;;;24.10;15.13;;;4.80;99.90;;;;;;5072525;28;20411;-91
2020/12/01 01:40:22;;;;;;;24.73;16.63;;;4.80;99.90;;;;;;5073546;28;20505;-90
2020/12/01 01:42:48;;;;;;;25.53;15.50;;;4.80;99.90;;;;;;5056703;28;20939;-90
2020/12/01 01:45:14;;;;;;;27.53;17.50;;;4.90;99.90;;;;;;5056308;28;20476;-93
2020/12/01 01:47:43;;;;;;;23.40;15.60;;;4.90;99.90;;;;;;5068309;28;20435;-88
2020/12/01 01:50:18;;;;;;;28.40;16.90;;;4.90;99.90;;;;;;5073260;28;20428;-89
2020/12/01 01:52:49;;;;;;;28.90;17.87;;;4.90;99.90;;;;;;5070139;28;20427;-90
2020/12/01 01:55:21;;;;;;;28.17;17.83;;;4.90;99.90;;;;;;5069394;28;20431;-86
2020/12/01 01:57:51;;;;;;;28.37;16.73;;;4.90;99.90;;;;;;5071354;28;20423;-87
2020/12/01 02:00:59;;;;;;;30.97;16.93;;;4.90;99.90;;;;;;5072059;28;20403;-86
2020/12/01 02:03:43;;;;;;;23.33;15.27;;;4.90;99.90;;;;;;5073655;28;20411;-84
2020/12/01 02:06:24;;;;;;;26.43;15.53;;;4.90;99.90;;;;;;5073588;28;20512;-86
2020/12/01 02:08:59;;;;;;;28.30;16.60;;;4.80;99.90;;;;;;5071769;28;20415;-91
2020/12/01 02:11:31;;;;;;;29.97;18.70;;;4.70;99.90;;;;;;5068452;28;20445;-92
2020/12/01 02:14:05;;;;;;;29.97;17.17;;;4.70;99.90;;;;;;5072507;28;20451;-88
2020/12/01 02:16:35;;;;;;;31.60;16.30;;;4.70;99.90;;;;;;5073208;28;20419;-90
2020/12/01 02:19:02;;;;;;;26.80;17.70;;;4.70;99.90;;;;;;5073095;28;20415;-90
2020/12/01 02:21:32;;;;;;;29.97;18.13;;;4.70;99.90;;;;;;5074029;28;20414;-89
2020/12/01 02:24:00;;;;;;;28.20;17.43;;;4.70;99.90;;;;;;5072854;28;20435;-88
2020/12/01 02:26:27;;;;;;;27.07;17.10;;;4.70;99.90;;;;;;5062439;28;20439;-87
2020/12/01 02:28:52;;;;;;;29.50;16.60;;;4.70;99.90;;;;;;5058501;28;20477;-89
2020/12/01 02:31:18;;;;;;;29.80;17.37;;;4.70;99.90;;;;;;5072274;28;20455;-91
2020/12/01 02:33:44;;;;;;;30.90;17.63;;;4.70;99.90;;;;;;5072648;28;20700;-90
2020/12/01 02:36:10;;;;;;;31.23;17.60;;;4.70;99.90;;;;;;5072549;28;20472;-88
2020/12/01 02:38:35;;;;;;;29.83;15.17;;;4.70;99.90;;;;;;5072342;28;20216;-88
2020/12/01 02:41:01;;;;;;;27.33;17.00;;;4.80;99.90;;;;;;5073048;28;20172;-83
2020/12/01 02:43:27;;;;;;;30.13;17.87;;;4.80;99.90;;;;;;5072557;28;20160;-82
2020/12/01 02:45:52;;;;;;;29.50;17.90;;;4.80;99.90;;;;;;5072861;28;20473;-82
2020/12/01 02:48:18;;;;;;;31.07;15.80;;;4.80;99.90;;;;;;5072894;28;20625;-83
2020/12/01 02:50:43;;;;;;;26.60;17.40;;;4.80;99.90;;;;;;5072840;28;20200;-83
2020/12/01 02:53:09;;;;;;;26.10;16.93;;;4.80;99.90;;;;;;5072956;28;20169;-82
2020/12/01 02:55:34;;;;;;;26.70;16.60;;;4.80;99.90;;;;;;5072797;28;20192;-82
2020/12/01 02:58:00;;;;;;;31.50;17.63;;;4.80;99.90;;;;;;5072541;28;20192;-83
2020/12/01 03:00:26;;;;;;;28.87;19.13;;;4.90;99.90;;;;;;5071570;28;20176;-83
2020/12/01 03:02:51;;;;;;;29.03;19.93;;;4.90;99.90;;;;;;5073480;28;20256;-82
2020/12/01 03:05:17;;;;;;;25.87;16.57;;;4.90;99.90;;;;;;5071567;28;20205;-83
2020/12/01 03:07:43;;;;;;;29.93;16.93;;;4.80;99.90;;;;;;5072888;28;20172;-83
2020/12/01 03:10:08;;;;;;;31.10;18.57;;;4.80;99.90;;;;;;5072793;28;20655;-83
2020/12/01 03:12:34;;;;;;;31.37;19.67;;;4.80;99.90;;;;;;5072604;28;20254;-85
2020/12/01 03:15:01;;;;;;;29.43;19.20;;;4.80;99.90;;;;;;5054408;28;20611;-84
2020/12/01 03:17:26;;;;;;;30.20;18.50;;;4.70;99.90;;;;;;5072651;28;20685;-86
2020/12/01 03:19:52;;;;;;;30.37;16.80;;;4.80;99.90;;;;;;5072649;28;20450;-83
2020/12/01 03:22:17;;;;;;;34.10;18.70;;;4.80;99.90;;;;;;5072710;28;20177;-82
2020/12/01 03:24:43;;;;;;;33.10;18.50;;;4.80;99.90;;;;;;5072602;28;20211;-83
2020/12/01 03:27:09;;;;;;;30.13;18.07;;;4.80;99.90;;;;;;5074338;28;20173;-84
2020/12/01 03:29:34;;;;;;;32.07;18.90;;;4.80;99.90;;;;;;5074815;28;20181;-83
2020/12/01 03:32:00;;;;;;;25.90;18.27;;;4.70;99.90;;;;;;5076448;28;20173;-83
2020/12/01 03:34:25;;;;;;;31.80;19.93;;;4.80;99.90;;;;;;5074939;28;20177;-83
2020/12/01 03:36:51;;;;;;;27.53;18.47;;;4.80;99.90;;;;;;5076472;28;20168;-83
2020/12/01 03:39:16;;;;;;;29.93;19.33;;;4.80;99.90;;;;;;5074983;28;20682;-84
2020/12/01 03:41:42;;;;;;;30.87;19.10;;;4.70;99.90;;;;;;5074811;28;20177;-82
2020/12/01 03:44:08;;;;;;;29.40;18.37;;;4.70;99.90;;;;;;5075806;28;20229;-83
2020/12/01 03:46:33;;;;;;;30.50;20.10;;;4.70;99.90;;;;;;5076314;28;20179;-82
2020/12/01 03:48:59;;;;;;;30.00;19.83;;;4.70;99.90;;;;;;5076150;28;20171;-83
2020/12/01 03:51:26;;;;;;;31.10;18.67;;;4.80;99.90;;;;;;5075974;28;20184;-82
2020/12/01 03:53:52;;;;;;;26.33;17.00;;;4.80;99.90;;;;;;5076097;28;20526;-83
2020/12/01 03:56:19;;;;;;;31.87;20.33;;;4.80;99.90;;;;;;5075959;28;20423;-85
2020/12/01 03:58:44;;;;;;;30.03;18.20;;;4.80;99.90;;;;;;5075553;28;20792;-83
2020/12/01 04:01:10;;;;;;;33.20;19.20;;;4.80;99.90;;;;;;5074688;28;20511;-85
2020/12/01 04:03:35;;;;;;;28.10;17.50;;;4.80;99.90;;;;;;5075936;28;20172;-83
2020/12/01 04:06:03;;;;;;;33.90;20.57;;;4.80;99.90;;;;;;5075526;28;20688;-83
2020/12/01 04:08:28;;;;;;;31.00;19.60;;;4.80;99.90;;;;;;5075909;28;20230;-84
2020/12/01 04:10:54;;;;;;;33.67;20.60;;;4.80;99.90;;;;;;5075734;28;20416;-83
2020/12/01 04:13:19;;;;;;;29.50;19.87;;;4.80;99.90;;;;;;5075269;28;20173;-87
2020/12/01 04:15:45;;;;;;;28.57;17.50;;;4.80;99.90;;;;;;5074619;28;20179;-84
2020/12/01 04:18:11;;;;;;;33.13;19.37;;;4.80;99.90;;;;;;5075694;28;20179;-85
2020/12/01 04:20:36;;;;;;;25.83;15.70;;;4.80;99.90;;;;;;5075671;28;20223;-85
2020/12/01 04:23:02;;;;;;;31.57;18.67;;;4.80;99.90;;;;;;5075505;28;20240;-85
2020/12/01 04:25:27;;;;;;;30.23;19.70;;;4.90;99.90;;;;;;5074053;28;20220;-84
2020/12/01 04:27:56;;;;;;;28.20;18.50;;;4.90;99.90;;;;;;5075026;28;20248;-84
2020/12/01 04:30:23;;;;;;;29.87;18.87;;;4.90;99.90;;;;;;5075294;28;20236;-84
2020/12/01 04:32:49;;;;;;;25.83;17.20;;;4.90;99.90;;;;;;5074094;28;20423;-84
2020/12/01 04:35:15;;;;;;;28.47;16.40;;;4.90;99.90;;;;;;5074027;28;20454;-86
2020/12/01 04:37:42;;;;;;;28.43;16.87;;;4.90;99.90;;;;;;5074570;28;20892;-87
2020/12/01 04:40:10;;;;;;;31.17;16.70;;;4.80;99.90;;;;;;5075014;28;20804;-86
2020/12/01 04:42:48;;;;;;;25.37;17.40;;;4.80;99.90;;;;;;5074968;28;20911;-87
2020/12/01 04:45:14;;;;;;;27.20;17.40;;;4.80;99.90;;;;;;5074134;28;20479;-87
2020/12/01 04:47:48;;;;;;;31.50;19.37;;;4.80;99.90;;;;;;5074960;28;20434;-84
2020/12/01 04:50:21;;;;;;;27.57;15.93;;;4.90;99.90;;;;;;5073693;28;20799;-84
2020/12/01 04:53:09;;;;;;;27.53;18.60;;;4.80;99.90;;;;;;5074870;28;20489;-84
2020/12/01 04:56:12;;;;;;;28.23;19.20;;;4.80;99.90;;;;;;5065342;28;20526;-83
2020/12/01 04:58:56;;;;;;;31.60;19.87;;;4.80;99.90;;;;;;5074271;28;20997;-84
2020/12/01 05:01:37;;;;;;;31.10;17.93;;;4.80;99.90;;;;;;5073314;28;20770;-86
2020/12/01 05:04:21;;;;;;;34.13;19.70;;;4.80;99.90;;;;;;5074519;28;20399;-86
2020/12/01 05:07:35;;;;;;;29.10;19.00;;;4.80;99.90;;;;;;5074268;28;20479;-86
2020/12/01 05:10:09;;;;;;;33.07;19.97;;;4.80;99.90;;;;;;5074522;28;20904;-85
2020/12/01 05:12:39;;;;;;;36.10;18.10;;;4.80;99.90;;;;;;5074360;28;20475;-83
2020/12/01 05:15:31;;;;;;;26.63;17.60;;;4.80;99.90;;;;;;5074330;28;20903;-85
2020/12/01 05:18:23;;;;;;;27.00;18.80;;;4.80;99.90;;;;;;5074408;28;20417;-84
2020/12/01 05:20:59;;;;;;;32.40;22.93;;;4.80;99.90;;;;;;5074262;28;20544;-85
2020/12/01 05:23:44;;;;;;;32.93;20.00;;;4.80;99.90;;;;;;5074213;28;20414;-86
2020/12/01 05:26:16;;;;;;;31.20;21.03;;;4.80;99.90;;;;;;5072774;28;20988;-85
2020/12/01 05:28:47;;;;;;;32.77;18.90;;;4.80;99.90;;;;;;5072522;28;20424;-84
2020/12/01 05:31:14;;;;;;;29.87;18.43;;;4.80;99.90;;;;;;5074042;28;20419;-84
2020/12/01 05:33:40;;;;;;;33.77;20.73;;;4.70;99.90;;;;;;5074005;28;20557;-84
2020/12/01 05:36:18;;;;;;;35.30;20.50;;;4.70;99.90;;;;;;5072660;28;20899;-84
2020/12/01 05:38:55;;;;;;;37.30;19.07;;;4.70;99.90;;;;;;5074074;28;20665;-85
2020/12/01 05:41:30;;;;;;;32.90;18.97;;;4.60;99.90;;;;;;5072605;28;20423;-86
2020/12/01 05:43:59;;;;;;;32.70;20.00;;;4.60;99.90;;;;;;5073472;28;20897;-85
2020/12/01 05:46:33;;;;;;;31.20;18.10;;;4.60;99.90;;;;;;5073782;28;20888;-85
2020/12/01 05:48:59;;;;;;;31.47;19.43;;;4.60;99.90;;;;;;5073029;28;20407;-85
2020/12/01 05:51:46;;;;;;;33.93;19.37;;;4.60;99.90;;;;;;5072395;28;20911;-86
2020/12/01 05:54:31;;;;;;;37.27;20.87;;;4.80;99.90;;;;;;5052455;28;20173;-85
2020/12/01 05:56:57;;;;;;;34.63;19.50;;;4.60;99.90;;;;;;5053597;28;20742;-85
2020/12/01 05:59:23;;;;;;;35.00;19.60;;;4.60;99.90;;;;;;5051971;28;20438;-85
2020/12/01 06:01:54;;;;;;;32.00;18.73;;;4.60;99.90;;;;;;5053542;28;20187;-85
2020/12/01 06:04:24;;;;;;;31.70;19.27;;;4.60;99.90;;;;;;5056727;28;20813;-87
2020/12/01 06:07:13;;;;;;;35.87;21.60;;;4.60;99.90;;;;;;5054535;28;20478;-86
2020/12/01 06:09:38;;;;;;;29.47;18.47;;;4.60;99.90;;;;;;5052347;28;20407;-87
2020/12/01 06:12:17;;;;;;;35.03;20.10;;;4.60;99.90;;;;;;5052309;28;20404;-86
2020/12/01 06:15:14;;;;;;;32.37;18.63;;;4.60;99.90;;;;;;5053260;28;20188;-87
2020/12/01 06:18:15;;;;;;;35.60;18.47;;;4.60;99.90;;;;;;5041345;28;20431;-87
2020/12/01 06:20:50;;;;;;;33.20;20.73;;;4.60;99.90;;;;;;5053573;28;20408;-87
2020/12/01 06:23:37;;;;;;;28.43;19.13;;;4.60;99.90;;;;;;5052312;28;20946;-87
2020/12/01 06:26:41;;;;;;;31.23;18.97;;;4.60;99.90;;;;;;5053224;28;20469;-87
2020/12/01 06:29:35;;;;;;;29.83;18.80;;;4.70;99.90;;;;;;5021783;28;20446;-87
2020/12/01 06:32:23;;;;;;;32.73;19.13;;;4.70;99.90;;;;;;5053250;28;20408;-87
2020/12/01 06:34:59;;;;;;;30.27;18.83;;;4.70;99.90;;;;;;5023394;28;20420;-87
2020/12/01 06:38:00;;;;;;;32.63;20.10;;;4.70;99.90;;;;;;5052996;28;20402;-87
2020/12/01 06:40:37;;;;;;;42.80;20.77;;;4.70;99.90;;;;;;5052917;28;20408;-86
2020/12/01 06:43:21;;;;;;;32.37;19.53;;;4.70;99.90;;;;;;5052698;28;20412;-87
2020/12/01 06:45:53;;;;;;;31.73;18.80;;;4.70;99.90;;;;;;5051840;28;20474;-87
2020/12/01 06:48:24;;;;;;;31.60;20.33;;;4.70;99.90;;;;;;5053112;28;20403;-87
2020/12/01 06:50:54;;;;;;;27.50;17.17;;;4.70;99.90;;;;;;5053284;28;20422;-86
2020/12/01 06:53:33;;;;;;;33.20;18.70;;;4.70;99.90;;;;;;5051624;28;20860;-86
2020/12/01 06:56:19;;;;;;;32.17;18.80;;;4.80;99.90;;;;;;5051594;28;20943;-87
2020/12/01 06:58:50;;;;;;;32.83;20.70;;;4.80;99.90;;;;;;5050780;28;20961;-87
2020/12/01 07:01:15;;;;;;;31.30;19.00;;;4.80;99.90;;;;;;5055041;28;20404;-86
2020/12/01 07:03:41;;;;;;;38.33;21.10;;;4.80;99.90;;;;;;5056942;28;20408;-86
2020/12/01 07:06:17;;;;;;;30.90;18.77;;;4.70;99.90;;;;;;5055299;28;20221;-87
2020/12/01 07:08:43;;;;;;;38.50;20.20;;;4.70;99.90;;;;;;5056857;28;20439;-86
2020/12/01 07:11:30;;;;;;;33.03;20.20;;;4.70;99.90;;;;;;5056606;28;20428;-87
2020/12/01 07:14:13;;;;;;;34.13;19.20;;;4.70;99.90;;;;;;5055090;28;20742;-86
2020/12/01 07:16:45;;;;;;;29.60;18.50;;;4.70;99.90;;;;;;5055507;28;20832;-86
2020/12/01 07:19:16;;;;;;;32.37;19.90;;;4.70;99.90;;;;;;5055514;28;21003;-86
2020/12/01 07:21:53;;;;;;;29.90;19.10;;;4.70;99.90;;;;;;5055385;28;20415;-86
2020/12/01 07:24:59;;;;;;;30.77;19.43;;;4.80;99.90;;;;;;5056582;28;20455;-87
2020/12/01 07:27:40;;;;;;;27.83;16.03;;;4.80;99.90;;;;;;4990387;28;20426;-87
2020/12/01 07:30:25;;;;;;;30.30;19.70;;;4.70;99.90;;;;;;5075067;28;20410;-86
2020/12/01 07:32:57;;;;;;;29.67;17.70;;;4.70;99.90;;;;;;5075033;28;20891;-86
2020/12/01 07:35:34;;;;;;;26.90;16.87;;;4.80;99.90;;;;;;5074946;28;20530;-87
2020/12/01 07:38:09;;;;;;;29.40;16.80;;;4.80;99.90;;;;;;5076231;28;20421;-86
2020/12/01 07:40:47;;;;;;;30.90;18.97;;;4.80;99.90;;;;;;5076151;28;20410;-86
2020/12/01 07:43:15;;;;;;;29.67;19.27;;;4.80;99.90;;;;;;5075750;28;20395;-85
2020/12/01 07:45:41;;;;;;;31.37;18.50;;;4.70;99.90;;;;;;5076082;28;20470;-86
2020/12/01 07:48:12;;;;;;;35.47;16.77;;;4.80;99.90;;;;;;5076055;28;20417;-86
2020/12/01 07:50:38;;;;;;;27.77;17.87;;;4.70;99.90;;;;;;5074718;28;20643;-86
2020/12/01 07:53:09;;;;;;;34.20;19.93;;;4.70;99.90;;;;;;5074742;28;20416;-85
2020/12/01 07:55:36;;;;;;;28.90;17.27;;;4.70;99.90;;;;;;5076004;28;20697;-86
2020/12/01 07:58:05;;;;;;;30.50;18.50;;;4.70;99.90;;;;;;5075505;28;20879;-86
2020/12/01 08:00:31;;;;;;;33.17;19.03;;;4.70;99.90;;;;;;5076066;28;20799;-87
2020/12/01 08:03:24;;;;;;;31.93;18.67;;;4.70;99.90;;;;;;5076035;28;20459;-87
2020/12/01 08:05:51;;;;;;;32.10;19.27;;;4.70;99.90;;;;;;5072014;28;20485;-88
2020/12/01 08:08:19;;;;;;;29.50;17.33;;;4.70;99.90;;;;;;5075679;28;20782;-88
2020/12/01 08:10:47;;;;;;;31.50;17.93;;;4.70;99.90;;;;;;5074756;28;20835;-86
2020/12/01 08:13:14;;;;;;;26.20;15.90;;;4.70;99.90;;;;;;5073571;28;20423;-88
2020/12/01 08:15:40;;;;;;;32.43;19.30;;;4.70;99.90;;;;;;5075932;28;20795;-87
2020/12/01 08:18:12;;;;;;;33.17;18.70;;;4.70;99.90;;;;;;5054933;28;20412;-87
2020/12/01 08:20:38;;;;;;;32.57;19.60;;;4.80;99.90;;;;;;5054869;28;20788;-86
2020/12/01 08:23:20;;;;;;;32.77;18.37;;;4.80;99.90;;;;;;5055876;28;20412;-87
2020/12/01 08:25:54;;;;;;;39.70;22.83;;;4.80;99.90;;;;;;5054851;28;20220;-86
2020/12/01 08:28:33;;;;;;;36.63;20.13;;;4.90;99.90;;;;;;5054262;28;20492;-87
2020/12/01 08:31:23;;;;;;;32.87;19.67;;;4.90;99.90;;;;;;5054747;28;20791;-87
2020/12/01 08:34:00;;;;;;;37.47;20.07;;;5.00;99.90;;;;;;5054269;28;20936;-89
2020/12/01 08:37:07;;;;;;;31.23;19.40;;;5.10;99.90;;;;;;5055926;28;20408;-89
2020/12/01 08:39:59;;;;;;;35.93;19.83;;;5.00;99.90;;;;;;5055737;28;20435;-89
2020/12/01 08:42:38;;;;;;;29.23;19.17;;;5.10;99.90;;;;;;5050447;28;20420;-89
2020/12/01 08:45:04;;;;;;;32.50;20.07;;;5.00;99.90;;;;;;5054787;28;20478;-89
2020/12/01 08:47:30;;;;;;;30.30;20.63;;;5.10;99.90;;;;;;5054632;28;20507;-89
2020/12/01 08:49:56;;;;;;;34.40;19.77;;;5.10;99.90;;;;;;5055940;28;20208;-89
2020/12/01 08:52:39;;;;;;;33.37;19.57;;;5.10;99.90;;;;;;5054405;28;20408;-88
2020/12/01 08:55:25;;;;;;;29.50;18.30;;;5.10;99.90;;;;;;5055671;28;20274;-89
2020/12/01 08:58:16;;;;;;;33.43;19.13;;;5.10;99.90;;;;;;5054911;28;20906;-88
2020/12/01 09:01:09;;;;;;;29.80;17.77;;;5.10;99.90;;;;;;5054432;28;20935;-88
2020/12/01 09:03:37;;;;;;;30.93;18.27;;;5.20;99.90;;;;;;5055474;28;20419;-87
2020/12/01 09:06:28;;;;;;;31.63;18.57;;;5.10;99.90;;;;;;5068040;28;20507;-89
2020/12/01 09:09:00;;;;;;;29.77;17.70;;;5.10;99.90;;;;;;5065382;28;20515;-89
2020/12/01 09:14:43;;;;;;;32.03;17.43;;;5.20;99.90;;;;;;5055366;28;20416;-88
2020/12/01 09:17:26;;;;;;;28.33;19.13;;;5.20;99.90;;;;;;5054738;28;20432;-88
2020/12/01 09:22:32;;;;;;;31.53;18.30;;;5.30;99.90;;;;;;5054763;28;20962;-87
2020/12/01 09:25:26;;;;;;;31.80;19.70;;;5.30;99.90;;;;;;5053292;28;20455;-88
2020/12/01 09:27:53;;;;;;;30.30;18.80;;;5.30;99.90;;;;;;5050290;28;20439;-87
2020/12/01 09:30:28;;;;;;;28.83;17.73;;;5.30;99.90;;;;;;5053163;28;20766;-87
2020/12/01 09:32:54;;;;;;;31.33;20.03;;;5.30;99.90;;;;;;5054246;28;20473;-86
2020/12/01 09:35:20;;;;;;;31.47;19.10;;;5.30;99.90;;;;;;5053013;28;20416;-89
2020/12/01 09:37:45;;;;;;;30.93;18.47;;;5.30;99.90;;;;;;5052967;28;20830;-87
2020/12/01 09:40:11;;;;;;;34.50;20.83;;;5.30;99.90;;;;;;5054085;28;20198;-87
2020/12/01 09:42:38;;;;;;;31.63;18.30;;;5.30;99.90;;;;;;5053896;28;20166;-87
2020/12/01 09:47:44;;;;;;;33.40;19.67;;;5.30;99.90;;;;;;5054215;28;20413;-87
2020/12/01 09:50:14;;;;;;;41.13;22.10;;;5.30;99.90;;;;;;5052886;28;20415;-87
2020/12/01 09:58:07;;;;;;;31.20;19.10;;;5.50;99.90;;;;;;5053443;28;20411;-87
2020/12/01 10:00:58;;;;;;;32.40;20.47;;;5.60;99.90;;;;;;5052544;28;20936;-87
2020/12/01 10:07:33;;;;;;;34.93;20.77;;;5.60;99.90;;;;;;5053538;28;20511;-85
2020/12/01 10:08:47;;;;;;;29.80;18.37;;;5.70;99.90;;;;;;5053552;28;20196;-88
2020/12/01 10:11:37;;;;;;;35.07;18.63;;;5.70;99.90;;;;;;5053615;28;20916;-87
2020/12/01 10:14:32;;;;;;;31.00;18.73;;;5.80;99.90;;;;;;5056050;28;20562;-87
2020/12/01 10:17:36;;;;;;;26.17;18.40;;;5.80;99.90;;;;;;5053072;28;20428;-87
2020/12/01 10:34:17;;;;;;;27.03;17.23;;;5.90;99.90;;;;;;5051223;28;20483;-91
2020/12/01 10:36:40;;;;;;;26.97;18.00;;;6.00;99.90;;;;;;5050477;28;20403;-88
2020/12/01 10:39:08;;;;;;;29.90;16.67;;;6.10;99.90;;;;;;5064857;28;20420;-89
2020/12/01 10:41:34;;;;;;;31.33;18.93;;;6.10;99.90;;;;;;5071394;28;20538;-89
2020/12/01 10:44:01;;;;;;;24.57;16.23;;;6.10;99.90;;;;;;5068931;28;20460;-89
2020/12/01 10:46:28;;;;;;;29.40;17.13;;;6.10;99.90;;;;;;5072387;28;20435;-89
2020/12/01 10:48:54;;;;;;;27.20;17.47;;;6.10;99.90;;;;;;5070614;28;20742;-91
2020/12/01 10:51:19;;;;;;;29.33;18.07;;;6.00;99.90;;;;;;5071619;28;20173;-91
2020/12/01 10:53:45;;;;;;;24.23;16.00;;;6.10;99.90;;;;;;5069593;28;20183;-90
2020/12/01 10:56:11;;;;;;;27.03;16.83;;;6.20;99.90;;;;;;5078906;28;20181;-91
2020/12/01 10:58:37;;;;;;;26.50;16.00;;;6.20;99.90;;;;;;5070437;28;20260;-88
2020/12/01 11:01:03;;;;;;;27.23;16.47;;;6.20;99.90;;;;;;5071981;28;20525;-92
2020/12/01 11:03:29;;;;;;;23.97;17.00;;;6.30;99.90;;;;;;5069824;28;20527;-91
2020/12/01 11:05:54;;;;;;;26.33;17.33;;;6.30;99.90;;;;;;5071353;28;20473;-88
2020/12/01 11:08:20;;;;;;;25.80;17.27;;;6.40;99.90;;;;;;5071513;28;20173;-89
2020/12/01 11:10:46;;;;;;;28.30;16.10;;;6.50;99.90;;;;;;5071046;28;20177;-90
2020/12/01 11:13:11;;;;;;;27.90;17.67;;;6.40;99.90;;;;;;5072167;28;20451;-89
2020/12/01 11:15:37;;;;;;;25.83;16.97;;;6.40;99.90;;;;;;5071628;28;20173;-90
2020/12/01 11:18:06;;;;;;;24.43;15.90;;;6.40;99.90;;;;;;5071997;28;20197;-90
2020/12/01 11:20:32;;;;;;;23.27;15.03;;;6.40;99.90;;;;;;5071690;28;20183;-90
2020/12/01 11:22:58;;;;;;;25.77;15.87;;;6.50;99.90;;;;;;5071461;28;20411;-90
2020/12/01 11:25:23;;;;;;;24.00;14.93;;;6.50;99.90;;;;;;5071375;28;20549;-91
2020/12/01 11:27:49;;;;;;;26.27;16.80;;;6.40;99.90;;;;;;5071795;28;20183;-87
2020/12/01 11:30:17;;;;;;;28.57;15.30;;;6.40;99.90;;;;;;5070027;28;20230;-87
2020/12/01 11:32:43;;;;;;;24.40;13.73;;;6.40;99.90;;;;;;5071216;28;20419;-87
2020/12/01 11:35:09;;;;;;;22.63;16.40;;;6.40;99.90;;;;;;5070223;28;20420;-88
2020/12/01 11:37:34;;;;;;;25.40;14.87;;;6.40;99.90;;;;;;5070068;28;20172;-87
2020/12/01 11:40:00;;;;;;;23.10;15.10;;;6.40;99.90;;;;;;5070824;28;20935;-88
2020/12/01 11:42:26;;;;;;;25.83;15.30;;;6.40;99.90;;;;;;5071436;28;20180;-88
2020/12/01 11:44:51;;;;;;;21.70;13.47;;;6.40;99.90;;;;;;5071749;28;20212;-88
2020/12/01 11:47:17;;;;;;;25.70;15.50;;;6.30;99.90;;;;;;5073210;28;20173;-89
2020/12/01 11:49:42;;;;;;;25.70;15.67;;;6.30;99.90;;;;;;5075642;28;20183;-87
2020/12/01 11:52:08;;;;;;;24.73;16.07;;;6.30;99.90;;;;;;5075181;28;20180;-85
2020/12/01 11:54:34;;;;;;;23.83;13.87;;;6.30;99.90;;;;;;5075993;28;20173;-88
2020/12/01 11:56:59;;;;;;;25.07;15.10;;;6.20;99.90;;;;;;5074839;28;20173;-89
2020/12/01 11:59:25;;;;;;;28.70;15.40;;;6.30;99.90;;;;;;5073838;28;20187;-88
2020/12/01 12:01:51;;;;;;;24.40;13.87;;;6.30;99.90;;;;;;5075095;28;20169;-88
2020/12/01 12:04:16;;;;;;;20.37;12.40;;;6.40;99.90;;;;;;5075457;28;20187;-89
2020/12/01 12:06:42;;;;;;;24.07;15.63;;;6.40;99.90;;;;;;5069522;28;20259;-88
2020/12/01 12:09:10;;;;;;;25.03;13.70;;;6.40;99.90;;;;;;5067533;28;20230;-88
2020/12/01 12:11:35;;;;;;;22.20;13.80;;;6.50;99.90;;;;;;5071113;28;20173;-89
2020/12/01 12:14:02;;;;;;;22.80;12.13;;;6.50;99.90;;;;;;5073751;28;20946;-88
2020/12/01 12:16:28;;;;;;;25.40;15.07;;;6.50;99.90;;;;;;5074598;28;20172;-88
2020/12/01 12:18:54;;;;;;;23.53;14.67;;;6.60;99.90;;;;;;5070602;28;20419;-88
2020/12/01 12:21:19;;;;;;;18.83;12.70;;;6.70;99.90;;;;;;5073895;28;20185;-89
2020/12/01 12:23:46;;;;;;;22.40;14.13;;;6.70;99.90;;;;;;5074311;28;20180;-89
2020/12/01 12:26:12;;;;;;;22.83;13.63;;;6.70;99.90;;;;;;5076068;28;20208;-88
2020/12/01 12:28:39;;;;;;;24.17;14.63;;;6.80;99.90;;;;;;5075807;28;20411;-88
2020/12/01 12:31:06;;;;;;;22.13;13.07;;;6.60;99.90;;;;;;5075101;28;20426;-88
2020/12/01 12:33:32;;;;;;;20.90;14.47;;;6.50;99.90;;;;;;5074047;28;20423;-91
2020/12/01 12:35:59;;;;;;;25.47;14.83;;;6.50;99.90;;;;;;5073650;28;20569;-87
2020/12/01 12:38:25;;;;;;;26.60;15.10;;;6.50;99.90;;;;;;5075010;28;20509;-88
2020/12/01 12:40:51;;;;;;;22.00;12.77;;;6.40;99.90;;;;;;5070731;28;20423;-88
2020/12/01 12:43:18;;;;;;;20.73;13.20;;;6.40;99.90;;;;;;5073148;28;20420;-88
2020/12/01 12:45:44;;;;;;;23.33;13.40;;;6.40;99.90;;;;;;5073792;28;20478;-89
2020/12/01 12:48:10;;;;;;;21.77;12.83;;;6.40;99.90;;;;;;5074689;28;20418;-89
2020/12/01 12:50:36;;;;;;;19.03;12.87;;;6.40;99.90;;;;;;5075054;28;20427;-88
2020/12/01 12:53:01;;;;;;;26.27;15.03;;;6.40;99.90;;;;;;5074277;28;20177;-88
2020/12/01 12:55:27;;;;;;;19.77;13.10;;;6.40;99.90;;;;;;5075740;28;20173;-89
2020/12/01 12:57:53;;;;;;;22.80;14.27;;;6.40;99.90;;;;;;5074437;28;20927;-88
2020/12/01 13:00:19;;;;;;;24.43;14.53;;;6.40;99.90;;;;;;5075993;28;20203;-89
2020/12/01 13:02:44;;;;;;;26.60;13.93;;;6.40;99.90;;;;;;5080536;28;20226;-90
2020/12/01 13:05:10;;;;;;;22.30;13.53;;;6.40;99.90;;;;;;5076269;28;20240;-88
2020/12/01 13:07:35;;;;;;;26.40;15.03;;;6.50;99.90;;;;;;5073552;28;20221;-88
2020/12/01 13:10:01;;;;;;;24.83;13.70;;;6.50;99.90;;;;;;5073672;28;20222;-88
2020/12/01 13:12:27;;;;;;;21.17;13.83;;;6.50;99.90;;;;;;5074954;28;20519;-88
2020/12/01 13:14:52;;;;;;;20.33;14.27;;;6.50;99.90;;;;;;5076623;28;20427;-88
2020/12/01 13:17:18;;;;;;;21.33;14.00;;;6.60;99.90;;;;;;5076565;28;20180;-88
2020/12/01 13:19:44;;;;;;;25.97;14.50;;;6.60;99.90;;;;;;5074500;28;20191;-88
2020/12/01 13:22:10;;;;;;;23.43;12.50;;;6.50;99.90;;;;;;5076129;28;20789;-88
2020/12/01 13:24:35;;;;;;;22.93;14.37;;;6.50;99.90;;;;;;5073010;28;20466;-90